Search for airport 
image banner adimage banner adimage banner ad
image banner ad

CN15 - Vineyard Oaks Farm

Located in Lemore, United States

ICAO - CN15, IATA -

Data provided by Airmate  

General information

Coordinates: N36°22'5" W119°47'6"
Elevation is 210 feet MSL.
 
View others Airports in California

Operational data

Special qualification required
Current time UTC:
Current local time:
Weather at : KHJO - Hanford Muni ( 15 km )
METAR: KHJO 210153Z AUTO 34004KT 10SM SCT110 26/12 A2993 RMK AO2 SLP136 T02560122
View NOTAMs / SUP AIP / TFR affecting this airport [VIEW]
Communications frequencies: [VIEW]

Runways:

RWY identifierQFULength (ft)Width (ft)SurfaceLDA (ft)
16218050GRASS
34218050GRASS

Airport contact information

Address: Lemore United States

Satellite view of CN15